createdAt,value
2022-11-04T00:02:06.282Z,9.60
2022-11-04T00:04:32.968Z,9.60
2022-11-04T00:06:59.597Z,9.50
2022-11-04T00:09:30.444Z,9.50
2022-11-04T00:12:16.779Z,9.60
2022-11-04T00:14:43.461Z,9.60
2022-11-04T00:17:19.990Z,9.60
2022-11-04T00:20:30.292Z,9.60
2022-11-04T00:23:15.455Z,9.50
2022-11-04T00:26:00.621Z,9.50
2022-11-04T00:28:42.716Z,9.50
2022-11-04T00:31:28.824Z,9.50
2022-11-04T00:33:57.538Z,9.50
2022-11-04T00:36:25.051Z,9.50
2022-11-04T00:38:51.999Z,9.40
2022-11-04T00:41:28.203Z,9.50
2022-11-04T00:44:00.667Z,9.40
2022-11-04T00:46:29.167Z,9.50
2022-11-04T00:48:56.122Z,9.50
2022-11-04T00:51:22.907Z,9.50
2022-11-04T00:53:50.150Z,9.50
2022-11-04T00:56:17.108Z,9.50
2022-11-04T00:58:43.959Z,9.50
2022-11-04T01:01:12.279Z,9.50
2022-11-04T01:03:39.643Z,9.50
2022-11-04T01:06:06.875Z,9.40
2022-11-04T01:08:33.469Z,9.40
2022-11-04T01:11:08.789Z,9.40
2022-11-04T01:13:36.076Z,9.40
2022-11-04T01:16:05.480Z,9.40
2022-11-04T01:18:32.201Z,9.40
2022-11-04T01:21:03.639Z,9.40
2022-11-04T01:23:30.577Z,9.50
2022-11-04T01:25:57.521Z,9.40
2022-11-04T01:28:24.086Z,9.40
2022-11-04T01:30:50.658Z,9.40
2022-11-04T01:33:17.328Z,9.40
2022-11-04T01:35:44.101Z,9.40
2022-11-04T01:38:11.274Z,9.40
2022-11-04T01:40:39.626Z,9.40
2022-11-04T01:43:18.815Z,9.50
2022-11-04T01:45:49.974Z,9.40
2022-11-04T01:48:23.683Z,9.40
2022-11-04T01:50:51.420Z,9.40
2022-11-04T01:53:37.549Z,9.40
2022-11-04T01:56:12.238Z,9.40
2022-11-04T01:58:52.718Z,9.40
2022-11-04T02:01:19.841Z,9.40
2022-11-04T02:03:54.360Z,9.40
2022-11-04T02:06:22.789Z,9.40
2022-11-04T02:08:49.481Z,9.40
2022-11-04T02:11:36.202Z,9.40
2022-11-04T02:14:03.074Z,9.40
2022-11-04T02:16:45.072Z,9.40
2022-11-04T02:19:28.529Z,9.40
2022-11-04T02:22:22.434Z,9.30
2022-11-04T02:25:08.550Z,9.30
2022-11-04T02:28:02.869Z,9.30
2022-11-04T02:30:44.111Z,9.30
2022-11-04T02:33:52.165Z,9.30
2022-11-04T02:36:35.692Z,9.30
2022-11-04T02:39:19.543Z,9.20
2022-11-04T02:42:02.585Z,9.20
2022-11-04T02:44:36.562Z,9.20
2022-11-04T02:47:26.473Z,9.20
2022-11-04T02:50:01.100Z,9.20
2022-11-04T02:52:57.198Z,9.20
2022-11-04T02:55:31.916Z,9.20
2022-11-04T02:58:01.786Z,9.10
2022-11-04T03:00:29.859Z,9.00
2022-11-04T03:03:09.771Z,9.00
2022-11-04T03:05:40.274Z,9.10
2022-11-04T03:08:14.567Z,9.00
2022-11-04T03:10:50.691Z,9.00
2022-11-04T03:13:21.769Z,9.00
2022-11-04T03:16:02.767Z,9.00
2022-11-04T03:18:52.131Z,9.00
2022-11-04T03:21:20.563Z,8.90
2022-11-04T03:23:47.240Z,8.90
2022-11-04T03:26:33.505Z,8.90
2022-11-04T03:29:16.073Z,8.90
2022-11-04T03:31:54.335Z,8.90
2022-11-04T03:34:20.993Z,9.00
2022-11-04T03:36:47.738Z,8.80
2022-11-04T03:39:14.492Z,8.80
2022-11-04T03:41:48.131Z,8.70
2022-11-04T03:44:14.957Z,8.70
2022-11-04T03:46:41.937Z,8.70
2022-11-04T03:49:10.582Z,8.80
2022-11-04T03:51:37.143Z,8.70
2022-11-04T03:54:04.450Z,8.70
2022-11-04T03:56:50.973Z,8.70
2022-11-04T03:59:39.525Z,8.70
2022-11-04T04:02:22.589Z,8.70
2022-11-04T04:04:54.660Z,8.70
2022-11-04T04:07:36.010Z,8.70
2022-11-04T04:10:30.060Z,8.60
2022-11-04T04:13:01.341Z,8.50
2022-11-04T04:16:01.067Z,8.50
2022-11-04T04:18:40.673Z,8.50
2022-11-04T04:21:10.938Z,8.40
2022-11-04T04:23:58.775Z,8.40
2022-11-04T04:26:44.870Z,8.40
2022-11-04T04:29:12.360Z,8.40
2022-11-04T04:31:49.761Z,8.30
2022-11-04T04:34:28.459Z,8.30
2022-11-04T04:37:07.698Z,8.30
2022-11-04T04:40:01.728Z,8.30
2022-11-04T04:42:54.332Z,8.20
2022-11-04T04:45:32.098Z,8.20
2022-11-04T04:47:59.177Z,8.30
2022-11-04T04:50:29.641Z,8.30
2022-11-04T04:52:58.185Z,8.30
2022-11-04T04:55:24.777Z,8.30
2022-11-04T04:57:51.423Z,8.30
2022-11-04T05:00:20.542Z,8.20
2022-11-04T05:02:48.306Z,8.20
2022-11-04T05:07:49.039Z,8.10
2022-11-04T05:10:17.452Z,8.10
2022-11-04T05:13:03.782Z,8.10
2022-11-04T05:15:31.744Z,8.00
2022-11-04T05:18:01.199Z,8.00
2022-11-04T05:20:30.223Z,7.80
2022-11-04T05:22:56.937Z,7.90
2022-11-04T05:25:23.623Z,7.80
2022-11-04T05:27:50.336Z,7.80
2022-11-04T05:30:17.355Z,7.90
2022-11-04T05:32:44.129Z,7.90
2022-11-04T05:35:13.748Z,7.90
2022-11-04T05:37:40.531Z,7.90
2022-11-04T05:40:07.931Z,7.90
2022-11-04T05:42:36.826Z,7.80
2022-11-04T05:45:04.368Z,7.70
2022-11-04T05:47:31.054Z,7.80
2022-11-04T05:49:57.850Z,7.80
2022-11-04T05:52:24.554Z,7.80
2022-11-04T05:54:51.281Z,7.90
2022-11-04T05:57:17.996Z,7.80
2022-11-04T05:59:45.216Z,7.80
2022-11-04T06:02:12.020Z,7.70
2022-11-04T06:04:39.045Z,7.70
2022-11-04T06:07:05.944Z,7.60
2022-11-04T06:09:39.011Z,7.50
2022-11-04T06:12:11.297Z,7.50
2022-11-04T06:14:38.201Z,7.50
2022-11-04T06:17:05.091Z,7.40
2022-11-04T06:19:31.812Z,7.40
2022-11-04T06:21:59.565Z,7.50
2022-11-04T06:24:26.453Z,7.40
2022-11-04T06:26:53.127Z,7.40
2022-11-04T06:29:19.874Z,7.40
2022-11-04T06:31:46.575Z,7.40
2022-11-04T06:34:13.299Z,7.40
2022-11-04T06:36:39.978Z,7.40
2022-11-04T06:39:06.740Z,7.50
2022-11-04T06:41:33.546Z,7.50
2022-11-04T06:44:00.555Z,7.50
2022-11-04T06:46:37.545Z,7.50
2022-11-04T06:49:05.970Z,7.50
2022-11-04T06:51:34.023Z,7.50
2022-11-04T06:54:00.734Z,7.50
2022-11-04T06:56:27.459Z,7.40
2022-11-04T06:58:55.468Z,7.30
2022-11-04T07:01:24.900Z,7.40
2022-11-04T07:03:53.691Z,7.40
2022-11-04T07:06:21.196Z,7.50
2022-11-04T07:08:49.130Z,7.50
2022-11-04T07:11:18.387Z,7.40
2022-11-04T07:13:45.192Z,7.20
2022-11-04T07:16:11.942Z,7.30
2022-11-04T07:18:38.722Z,7.30
2022-11-04T07:21:09.752Z,7.30
2022-11-04T07:23:37.405Z,7.30
2022-11-04T07:26:06.652Z,7.30
2022-11-04T07:28:33.992Z,7.30
2022-11-04T07:31:02.090Z,7.30
2022-11-04T07:33:28.812Z,7.30
2022-11-04T07:35:58.298Z,7.30
2022-11-04T07:38:25.535Z,7.30
2022-11-04T07:40:52.506Z,7.30
2022-11-04T07:43:19.252Z,7.30
2022-11-04T07:45:45.975Z,7.30
2022-11-04T07:48:12.663Z,7.30
2022-11-04T07:50:40.430Z,7.30
2022-11-04T07:53:08.072Z,7.30
2022-11-04T07:55:43.222Z,7.30
2022-11-04T07:58:10.440Z,7.40
2022-11-04T08:00:37.099Z,7.40
2022-11-04T08:03:03.926Z,7.50
2022-11-04T08:05:30.675Z,7.50
2022-11-04T08:07:58.070Z,7.60
2022-11-04T08:10:24.988Z,7.60
2022-11-04T08:12:52.382Z,7.60
2022-11-04T08:15:19.029Z,7.60
2022-11-04T08:17:45.726Z,7.60
2022-11-04T08:20:12.470Z,7.70
2022-11-04T08:22:39.160Z,7.70
2022-11-04T08:25:06.275Z,7.70
2022-11-04T08:27:34.399Z,7.70
2022-11-04T08:30:01.088Z,7.80
2022-11-04T08:32:27.960Z,7.80
2022-11-04T08:34:54.655Z,7.80
2022-11-04T08:37:21.366Z,7.90
2022-11-04T08:39:48.081Z,7.90
2022-11-04T08:42:15.214Z,7.90
2022-11-04T08:44:42.856Z,7.90
2022-11-04T08:47:10.201Z,8.00
2022-11-04T08:49:41.036Z,8.00
2022-11-04T08:52:07.838Z,8.00
2022-11-04T08:54:34.600Z,8.10
2022-11-04T08:57:01.561Z,8.10
2022-11-04T08:59:28.493Z,8.10
2022-11-04T09:01:55.435Z,8.10
2022-11-04T09:04:22.580Z,8.10
2022-11-04T09:06:50.944Z,8.10
2022-11-04T09:09:18.187Z,8.20
2022-11-04T09:11:46.073Z,8.20
2022-11-04T09:14:13.674Z,8.20
2022-11-04T09:16:41.322Z,8.20
2022-11-04T09:19:08.030Z,8.30
2022-11-04T09:21:34.769Z,8.30
2022-11-04T09:24:01.532Z,8.30
2022-11-04T09:26:28.576Z,8.40
2022-11-04T09:28:57.739Z,8.40
2022-11-04T09:31:26.812Z,8.40
2022-11-04T09:33:54.868Z,8.40
2022-11-04T09:36:21.979Z,8.50
2022-11-04T09:38:48.740Z,8.50
2022-11-04T09:41:34.739Z,8.50
2022-11-04T09:44:11.679Z,8.60
2022-11-04T09:46:39.434Z,8.60
2022-11-04T09:49:10.163Z,8.60
2022-11-04T09:51:55.272Z,8.70
2022-11-04T09:54:31.853Z,8.70
2022-11-04T09:57:01.726Z,8.80
2022-11-04T09:59:37.236Z,9.00
2022-11-04T10:02:21.871Z,9.00
2022-11-04T10:05:09.041Z,9.20
2022-11-04T10:07:59.339Z,9.30
2022-11-04T10:10:39.292Z,9.40
2022-11-04T10:13:25.005Z,9.50
2022-11-04T10:16:21.927Z,9.70
2022-11-04T10:18:48.571Z,9.70
2022-11-04T10:21:34.074Z,9.70
2022-11-04T10:24:33.414Z,9.80
2022-11-04T10:27:04.358Z,9.80
2022-11-04T10:29:45.756Z,9.80
2022-11-04T10:32:22.662Z,9.80
2022-11-04T10:35:24.300Z,9.80
2022-11-04T10:37:53.579Z,9.80
2022-11-04T10:40:36.630Z,9.90
2022-11-04T10:43:09.739Z,9.90
2022-11-04T10:45:44.790Z,9.90
2022-11-04T10:48:41.752Z,9.90
2022-11-04T10:51:08.445Z,9.90
2022-11-04T10:53:36.194Z,9.90
2022-11-04T10:56:37.528Z,10.10
2022-11-04T10:59:24.522Z,9.90
2022-11-04T11:01:54.030Z,10.00
2022-11-04T11:04:35.512Z,9.90
2022-11-04T11:07:05.121Z,9.90
2022-11-04T11:09:43.027Z,10.00
2022-11-04T11:12:44.348Z,10.00
2022-11-04T11:14:59.343Z,10.10
2022-11-04T11:17:38.328Z,10.10
2022-11-04T11:20:15.154Z,10.10
2022-11-04T11:22:44.523Z,10.20
2022-11-04T11:25:31.171Z,10.20
2022-11-04T11:28:07.020Z,10.20
2022-11-04T11:30:42.162Z,10.20
2022-11-04T11:33:30.757Z,10.30
2022-11-04T11:36:13.090Z,10.30
2022-11-04T11:39:03.700Z,10.30
2022-11-04T11:41:40.908Z,10.20
2022-11-04T11:44:32.928Z,10.30
2022-11-04T11:47:05.622Z,10.30
2022-11-04T11:49:35.779Z,10.40
2022-11-04T11:52:31.810Z,10.30
2022-11-04T11:55:30.216Z,10.40
2022-11-04T12:01:39.280Z,10.50
2022-11-04T12:10:07.060Z,10.60
2022-11-04T12:12:42.524Z,10.60
2022-11-04T12:15:18.880Z,10.50
2022-11-04T12:18:24.327Z,10.50
2022-11-04T12:21:38.136Z,10.50
2022-11-04T12:24:29.380Z,10.50
2022-11-04T12:27:06.393Z,10.60
2022-11-04T12:29:59.532Z,10.60
2022-11-04T12:32:32.245Z,10.60
2022-11-04T12:35:20.491Z,10.60
2022-11-04T12:38:11.514Z,10.60
2022-11-04T12:41:27.617Z,10.70
2022-11-04T12:44:05.202Z,10.70
2022-11-04T12:46:47.340Z,10.70
2022-11-04T12:49:22.741Z,10.70
2022-11-04T12:52:20.310Z,10.70
2022-11-04T12:55:00.836Z,10.80
2022-11-04T12:57:34.907Z,10.80
2022-11-04T13:00:14.010Z,10.90
2022-11-04T13:03:01.049Z,10.90
2022-11-04T13:05:53.804Z,11.00
2022-11-04T13:08:41.571Z,11.00
2022-11-04T13:11:26.498Z,11.10
2022-11-04T13:14:07.369Z,11.20
2022-11-04T13:16:40.751Z,11.20
2022-11-04T13:20:02.846Z,11.30
2022-11-04T13:22:33.045Z,11.30
2022-11-04T13:25:15.072Z,11.30
2022-11-04T13:27:45.574Z,11.30
2022-11-04T13:30:50.368Z,11.40
2022-11-04T13:33:42.788Z,11.30
2022-11-04T13:36:33.943Z,11.40
2022-11-04T13:39:07.666Z,11.50
2022-11-04T13:42:27.639Z,11.50
2022-11-04T13:44:57.911Z,11.70
2022-11-04T13:47:30.737Z,11.80
2022-11-04T13:49:57.412Z,11.80
2022-11-04T13:52:37.917Z,11.90
2022-11-04T13:55:06.799Z,11.90
2022-11-04T13:58:17.366Z,11.90
2022-11-04T14:01:25.618Z,11.90
2022-11-04T14:04:10.652Z,11.90
2022-11-04T14:06:58.970Z,11.80
2022-11-04T14:09:42.372Z,11.50
2022-11-04T14:12:14.764Z,11.30
2022-11-04T14:14:50.695Z,11.20
2022-11-04T14:17:35.789Z,11.00
2022-11-04T14:20:06.417Z,11.00
2022-11-04T14:22:49.387Z,10.90
2022-11-04T14:25:58.345Z,10.80
2022-11-04T14:28:28.499Z,10.80
2022-11-04T14:31:08.160Z,10.70
2022-11-04T14:33:56.097Z,10.70
2022-11-04T14:36:25.697Z,10.60
2022-11-04T14:39:11.873Z,10.50
2022-11-04T14:41:41.448Z,10.40
2022-11-04T14:44:34.308Z,10.30
2022-11-04T14:47:25.954Z,10.30
2022-11-04T14:50:02.382Z,10.20
2022-11-04T14:52:44.728Z,10.10
2022-11-04T14:55:19.082Z,10.10
2022-11-04T14:57:50.536Z,10.00
2022-11-04T15:00:30.654Z,9.90
2022-11-04T15:03:41.011Z,9.90
2022-11-04T15:06:06.320Z,9.90
2022-11-04T15:08:42.370Z,9.90
2022-11-04T15:11:40.615Z,9.80
2022-11-04T15:14:20.638Z,9.90
2022-11-04T15:16:51.276Z,9.80
2022-11-04T15:19:30.993Z,9.90
2022-11-04T15:22:00.791Z,9.90
2022-11-04T15:24:28.704Z,9.90
2022-11-04T15:27:05.753Z,9.90
2022-11-04T15:29:33.134Z,10.00
2022-11-04T15:32:05.331Z,10.00
2022-11-04T15:34:33.276Z,10.00
2022-11-04T15:37:04.292Z,10.00
2022-11-04T15:39:34.456Z,9.90
2022-11-04T15:42:41.567Z,9.90
2022-11-04T15:45:26.669Z,9.80
2022-11-04T15:48:22.919Z,9.90
2022-11-04T15:51:13.443Z,9.90
2022-11-04T15:53:59.774Z,9.80
2022-11-04T15:56:30.274Z,9.80
2022-11-04T15:58:58.475Z,9.70
2022-11-04T16:01:25.971Z,9.70
2022-11-04T16:03:58.701Z,9.70
2022-11-04T16:06:38.810Z,9.70
2022-11-04T16:09:26.075Z,9.60
2022-11-04T16:12:15.524Z,9.60
2022-11-04T16:14:50.920Z,9.60
2022-11-04T16:17:18.124Z,9.50
2022-11-04T16:19:51.121Z,9.50
2022-11-04T16:22:23.747Z,9.40
2022-11-04T16:24:52.377Z,9.30
2022-11-04T16:27:21.721Z,9.30
2022-11-04T16:30:13.802Z,9.30
2022-11-04T16:32:43.327Z,9.30
2022-11-04T16:35:27.869Z,9.20
2022-11-04T16:37:58.646Z,9.30
2022-11-04T16:40:25.873Z,9.20
2022-11-04T16:42:53.311Z,9.20
2022-11-04T16:45:25.055Z,9.20
2022-11-04T16:47:52.590Z,9.20
2022-11-04T16:50:19.588Z,9.30
2022-11-04T16:52:46.593Z,9.30
2022-11-04T16:55:14.843Z,9.30
2022-11-04T16:57:42.380Z,9.30
2022-11-04T17:00:22.660Z,9.20
2022-11-04T17:02:50.176Z,9.20
2022-11-04T17:05:18.161Z,9.20
2022-11-04T17:07:55.490Z,9.10
2022-11-04T17:10:27.139Z,9.20
2022-11-04T17:12:53.763Z,9.10
2022-11-04T17:15:20.501Z,9.10
2022-11-04T17:18:17.389Z,9.10
2022-11-04T17:20:48.682Z,9.10
2022-11-04T17:23:15.777Z,9.10
2022-11-04T17:25:42.971Z,9.10
2022-11-04T17:28:09.686Z,9.10
2022-11-04T17:30:36.317Z,9.10
2022-11-04T17:33:06.537Z,9.10
2022-11-04T17:35:36.806Z,9.00
2022-11-04T17:38:03.744Z,9.00
2022-11-04T17:40:30.760Z,9.00
2022-11-04T17:43:20.438Z,9.00
2022-11-04T17:46:07.049Z,9.00
2022-11-04T17:48:33.648Z,8.90
2022-11-04T17:51:00.240Z,8.90
2022-11-04T17:53:26.858Z,8.90
2022-11-04T17:55:53.441Z,8.90
2022-11-04T17:58:21.547Z,8.90
2022-11-04T18:00:48.133Z,8.90
2022-11-04T18:03:14.751Z,8.90
2022-11-04T18:05:41.323Z,8.90
2022-11-04T18:08:07.950Z,8.90
2022-11-04T18:10:34.558Z,8.90
2022-11-04T18:13:01.237Z,8.90
2022-11-04T18:15:28.394Z,8.80
2022-11-04T18:17:55.104Z,8.80
2022-11-04T18:20:21.884Z,8.70
2022-11-04T18:22:48.524Z,8.80
2022-11-04T18:25:15.256Z,8.70
2022-11-04T18:27:41.992Z,8.70
2022-11-04T18:30:09.332Z,8.60
2022-11-04T18:32:36.094Z,8.60
2022-11-04T18:35:02.868Z,8.60
2022-11-04T18:37:29.646Z,8.60
2022-11-04T18:39:56.569Z,8.70
2022-11-04T18:42:23.348Z,8.70
2022-11-04T18:44:50.059Z,8.60
2022-11-04T18:47:17.841Z,8.60
2022-11-04T18:49:44.714Z,8.70
2022-11-04T18:52:11.414Z,8.60
2022-11-04T18:54:38.120Z,8.70
2022-11-04T18:57:04.945Z,8.70
2022-11-04T18:59:32.245Z,8.60
2022-11-04T19:01:59.056Z,8.60
2022-11-04T19:04:25.937Z,8.50
2022-11-04T19:06:52.878Z,8.60
2022-11-04T19:12:25.543Z,8.60
2022-11-04T19:14:52.912Z,8.50
2022-11-04T19:17:50.771Z,8.50
2022-11-04T19:20:17.672Z,8.50
2022-11-04T19:22:44.553Z,8.50
2022-11-04T19:25:11.363Z,8.70
2022-11-04T19:27:38.414Z,8.50
2022-11-04T19:30:05.595Z,8.50
2022-11-04T19:32:32.321Z,8.50
2022-11-04T19:34:58.987Z,8.50
2022-11-04T19:37:25.725Z,8.50
2022-11-04T19:39:52.447Z,8.60
2022-11-04T19:42:37.833Z,8.60
2022-11-04T19:45:05.037Z,8.50
2022-11-04T19:47:31.758Z,8.50
2022-11-04T19:49:58.591Z,8.50
2022-11-04T19:52:25.323Z,8.50
2022-11-04T19:54:51.988Z,8.50
2022-11-04T19:57:18.716Z,8.50
2022-11-04T19:59:45.393Z,8.50
2022-11-04T20:02:15.544Z,8.50
2022-11-04T20:04:42.306Z,8.50
2022-11-04T20:07:09.000Z,8.50
2022-11-04T20:09:35.746Z,8.50
2022-11-04T20:12:20.969Z,8.60
2022-11-04T20:14:47.699Z,8.40
2022-11-04T20:17:14.432Z,8.50
2022-11-04T20:19:41.171Z,8.40
2022-11-04T20:22:07.859Z,8.50
2022-11-04T20:24:34.519Z,8.50
2022-11-04T20:27:01.350Z,8.40
2022-11-04T20:29:28.011Z,8.40
2022-11-04T20:31:54.661Z,8.50
2022-11-04T20:34:21.411Z,8.50
2022-11-04T20:36:48.122Z,8.50
2022-11-04T20:39:16.938Z,8.40
2022-11-04T20:41:44.370Z,8.40
2022-11-04T20:44:15.534Z,8.40
2022-11-04T20:46:42.588Z,8.40
2022-11-04T20:49:09.858Z,8.40
2022-11-04T20:51:42.079Z,8.40
2022-11-04T20:54:11.187Z,8.40
2022-11-04T20:56:39.241Z,8.40
2022-11-04T20:59:06.851Z,8.50
2022-11-04T21:01:36.310Z,8.40
2022-11-04T21:04:12.418Z,8.40
2022-11-04T21:06:39.559Z,8.40
2022-11-04T21:09:08.353Z,8.40
2022-11-04T21:11:35.772Z,8.30
2022-11-04T21:14:03.813Z,8.30
2022-11-04T21:16:30.545Z,8.30
2022-11-04T21:18:57.849Z,8.30
2022-11-04T21:21:27.692Z,8.30
2022-11-04T21:23:58.891Z,8.30
2022-11-04T21:26:27.780Z,8.20
2022-11-04T21:29:01.305Z,8.30
2022-11-04T21:31:29.220Z,8.20
2022-11-04T21:33:56.556Z,8.20
2022-11-04T21:36:23.433Z,8.10
2022-11-04T21:38:50.435Z,8.20
2022-11-04T21:41:26.838Z,8.00
2022-11-04T21:43:58.213Z,8.10
2022-11-04T21:46:25.825Z,8.00
2022-11-04T21:48:52.734Z,8.00
2022-11-04T21:51:22.283Z,8.00
2022-11-04T21:53:49.108Z,8.00
2022-11-04T21:56:19.363Z,8.00
2022-11-04T21:58:46.616Z,8.00
2022-11-04T22:01:16.430Z,8.00
2022-11-04T22:03:44.075Z,8.00
2022-11-04T22:06:13.046Z,8.00
2022-11-04T22:08:44.881Z,8.00
2022-11-04T22:11:14.819Z,8.00
2022-11-04T22:13:42.272Z,8.10
2022-11-04T22:16:17.258Z,8.10
2022-11-04T22:18:44.549Z,8.00
2022-11-04T22:21:16.534Z,8.20
2022-11-04T22:23:43.982Z,8.10
2022-11-04T22:26:16.672Z,8.10
2022-11-04T22:28:43.470Z,8.00
2022-11-04T22:31:17.429Z,8.10
2022-11-04T22:33:44.701Z,8.10
2022-11-04T22:36:12.730Z,8.10
2022-11-04T22:38:40.626Z,8.00
2022-11-04T22:41:10.416Z,8.00
2022-11-04T22:43:37.248Z,8.00
2022-11-04T22:46:27.855Z,8.10
2022-11-04T22:48:55.007Z,7.90
2022-11-04T22:51:21.894Z,8.00
2022-11-04T22:53:56.740Z,8.00
2022-11-04T22:56:25.937Z,7.90
2022-11-04T22:58:54.677Z,7.90
2022-11-04T23:01:21.657Z,7.90
2022-11-04T23:03:51.046Z,7.90
2022-11-04T23:06:17.992Z,7.90
2022-11-04T23:09:18.508Z,7.90
2022-11-04T23:12:03.907Z,7.90
2022-11-04T23:14:39.289Z,7.90
2022-11-04T23:17:51.403Z,7.90
2022-11-04T23:20:18.651Z,7.90
2022-11-04T23:23:04.024Z,7.90
2022-11-04T23:25:30.768Z,7.90
2022-11-04T23:28:16.291Z,8.10
2022-11-04T23:30:45.949Z,7.90
2022-11-04T23:33:16.920Z,7.90
2022-11-04T23:36:05.645Z,7.90
2022-11-04T23:38:33.373Z,7.90
2022-11-04T23:41:22.605Z,7.90
2022-11-04T23:43:49.325Z,8.00
2022-11-04T23:46:41.129Z,8.00
2022-11-04T23:49:30.231Z,7.90
2022-11-04T23:52:15.670Z,7.90
2022-11-04T23:55:01.058Z,7.90
2022-11-04T23:57:46.568Z,7.90
